createdAt,value
2023-05-14T00:00:41.036Z,9.94
2023-05-14T00:03:07.847Z,9.83
2023-05-14T00:05:34.615Z,9.68
2023-05-14T00:08:01.115Z,9.59
2023-05-14T00:10:28.093Z,9.50
2023-05-14T00:12:54.585Z,9.68
2023-05-14T00:15:21.476Z,9.55
2023-05-14T00:17:48.036Z,9.39
2023-05-14T00:20:14.813Z,9.86
2023-05-14T00:22:41.470Z,9.86
2023-05-14T00:25:09.561Z,9.46
2023-05-14T00:27:37.734Z,9.85
2023-05-14T00:30:06.794Z,10.12
2023-05-14T00:32:34.111Z,9.32
2023-05-14T00:35:02.995Z,9.28
2023-05-14T00:37:30.828Z,9.34
2023-05-14T00:39:57.853Z,9.21
2023-05-14T00:42:24.633Z,9.22
2023-05-14T00:44:51.135Z,9.51
2023-05-14T00:47:18.247Z,9.79
2023-05-14T00:49:45.852Z,9.90
2023-05-14T00:52:12.833Z,10.08
2023-05-14T00:54:39.923Z,9.92
2023-05-14T00:57:06.927Z,9.78
2023-05-14T00:59:34.518Z,10.01
2023-05-14T01:02:01.850Z,9.95
2023-05-14T01:04:29.248Z,9.80
2023-05-14T01:07:17.074Z,9.82
2023-05-14T01:10:08.358Z,9.80
2023-05-14T01:12:57.785Z,9.81
2023-05-14T01:15:31.853Z,9.78
2023-05-14T01:18:07.458Z,9.56
2023-05-14T01:20:34.099Z,9.68
2023-05-14T01:23:00.941Z,10.19
2023-05-14T01:25:29.719Z,9.77
2023-05-14T01:28:17.859Z,9.68
2023-05-14T01:30:56.981Z,9.45
2023-05-14T01:33:29.285Z,9.46
2023-05-14T01:35:56.632Z,9.35
2023-05-14T01:38:27.472Z,9.02
2023-05-14T01:40:56.564Z,9.29
2023-05-14T01:43:23.901Z,9.52
2023-05-14T01:45:50.646Z,9.21
2023-05-14T01:48:17.635Z,9.32
2023-05-14T01:50:44.212Z,8.88
2023-05-14T01:53:10.644Z,9.48
2023-05-14T01:55:37.149Z,9.24
2023-05-14T01:58:03.612Z,9.22
2023-05-14T02:00:30.439Z,9.19
2023-05-14T02:02:56.926Z,8.85
2023-05-14T02:05:23.482Z,8.66
2023-05-14T02:07:50.066Z,8.54
2023-05-14T02:10:16.568Z,8.50
2023-05-14T02:12:43.157Z,8.47
2023-05-14T02:15:11.010Z,8.41
2023-05-14T02:17:37.539Z,8.31
2023-05-14T02:20:04.802Z,8.22
2023-05-14T02:22:31.274Z,8.14
2023-05-14T02:24:57.797Z,7.99
2023-05-14T02:27:24.364Z,8.05
2023-05-14T02:29:50.819Z,7.99
2023-05-14T02:32:17.366Z,8.05
2023-05-14T02:34:43.853Z,7.95
2023-05-14T02:37:10.326Z,7.94
2023-05-14T02:39:36.774Z,7.90
2023-05-14T02:42:03.397Z,7.91
2023-05-14T02:44:31.727Z,7.98
2023-05-14T02:46:58.254Z,8.15
2023-05-14T02:49:24.993Z,8.17
2023-05-14T02:51:51.605Z,8.09
2023-05-14T02:54:18.088Z,8.15
2023-05-14T02:56:44.576Z,8.35
2023-05-14T02:59:11.100Z,8.52
2023-05-14T03:01:38.049Z,7.67
2023-05-14T03:04:05.392Z,7.80
2023-05-14T03:06:31.940Z,8.50
2023-05-14T03:08:58.423Z,8.52
2023-05-14T03:11:25.602Z,8.28
2023-05-14T03:13:52.085Z,8.09
2023-05-14T03:16:18.958Z,7.98
2023-05-14T03:18:45.475Z,8.56
2023-05-14T03:21:12.516Z,8.50
2023-05-14T03:23:39.153Z,8.59
2023-05-14T03:26:06.248Z,8.29
2023-05-14T03:28:32.741Z,8.07
2023-05-14T03:30:59.298Z,8.27
2023-05-14T03:33:26.050Z,8.04
2023-05-14T03:35:52.557Z,8.64
2023-05-14T03:38:19.116Z,8.01
2023-05-14T03:40:46.217Z,8.08
2023-05-14T03:43:12.703Z,8.39
2023-05-14T03:45:39.871Z,8.34
2023-05-14T03:48:06.720Z,8.40
2023-05-14T03:50:33.514Z,8.35
2023-05-14T03:53:03.300Z,8.05
2023-05-14T03:55:29.930Z,8.33
2023-05-14T03:57:56.445Z,7.61
2023-05-14T04:00:23.179Z,7.31
2023-05-14T04:02:49.974Z,8.04
2023-05-14T04:05:16.944Z,8.48
2023-05-14T04:07:45.115Z,8.50
2023-05-14T04:10:12.853Z,8.20
2023-05-14T04:12:39.370Z,7.58
2023-05-14T04:15:06.824Z,7.80
2023-05-14T04:17:34.951Z,7.97
2023-05-14T04:20:01.710Z,8.27
2023-05-14T04:22:28.189Z,8.52
2023-05-14T04:24:54.747Z,8.36
2023-05-14T04:27:22.182Z,8.44
2023-05-14T04:29:50.467Z,8.25
2023-05-14T04:32:17.695Z,7.90
2023-05-14T04:34:44.417Z,8.47
2023-05-14T04:37:10.941Z,7.94
2023-05-14T04:39:38.339Z,8.03
2023-05-14T04:42:06.607Z,7.51
2023-05-14T04:44:36.161Z,7.45
2023-05-14T04:47:02.871Z,7.89
2023-05-14T04:49:30.761Z,7.18
2023-05-14T04:51:57.342Z,7.53
2023-05-14T04:54:23.959Z,7.74
2023-05-14T04:56:51.200Z,7.14
2023-05-14T04:59:17.862Z,7.34
2023-05-14T05:01:45.323Z,7.24
2023-05-14T05:04:12.221Z,7.61
2023-05-14T05:06:39.091Z,7.05
2023-05-14T05:09:05.578Z,7.28
2023-05-14T05:11:32.093Z,7.34
2023-05-14T05:13:58.524Z,7.38
2023-05-14T05:16:25.106Z,7.96
2023-05-14T05:18:51.826Z,7.25
2023-05-14T05:21:19.365Z,7.64
2023-05-14T05:23:45.898Z,7.84
2023-05-14T05:26:12.419Z,8.33
2023-05-14T05:28:38.951Z,7.78
2023-05-14T05:31:05.685Z,7.91
2023-05-14T05:33:32.276Z,8.02
2023-05-14T05:35:58.699Z,8.20
2023-05-14T05:38:25.296Z,8.47
2023-05-14T05:40:52.283Z,8.62
2023-05-14T05:43:18.744Z,8.75
2023-05-14T05:45:45.984Z,8.72
2023-05-14T05:48:12.781Z,9.05
2023-05-14T05:50:39.272Z,9.50
2023-05-14T05:53:05.727Z,9.26
2023-05-14T05:55:32.236Z,9.60
2023-05-14T05:57:58.840Z,9.19
2023-05-14T06:00:25.696Z,9.67
2023-05-14T06:02:52.446Z,9.05
2023-05-14T06:05:19.495Z,9.43
2023-05-14T06:07:46.057Z,9.43
2023-05-14T06:10:12.583Z,9.47
2023-05-14T06:12:39.155Z,9.29
2023-05-14T06:15:06.646Z,9.19
2023-05-14T06:17:33.204Z,9.94
2023-05-14T06:19:59.815Z,9.72
2023-05-14T06:22:26.412Z,9.60
2023-05-14T06:24:52.920Z,10.06
2023-05-14T06:27:19.335Z,10.11
2023-05-14T06:29:45.941Z,9.99
2023-05-14T06:32:15.422Z,10.23
2023-05-14T06:34:42.966Z,10.44
2023-05-14T06:37:10.491Z,11.08
2023-05-14T06:39:37.952Z,10.85
2023-05-14T06:42:05.698Z,10.83
2023-05-14T06:44:32.710Z,11.07
2023-05-14T06:46:59.341Z,11.90
2023-05-14T06:49:26.135Z,11.93
2023-05-14T06:51:53.740Z,11.90
2023-05-14T06:54:20.595Z,12.52
2023-05-14T06:56:47.133Z,12.39
2023-05-14T06:59:13.769Z,12.91
2023-05-14T07:01:40.925Z,13.27
2023-05-14T07:04:07.718Z,14.24
2023-05-14T07:06:34.784Z,14.05
2023-05-14T07:09:02.214Z,14.95
2023-05-14T07:11:28.902Z,15.03
2023-05-14T07:13:55.532Z,15.02
2023-05-14T07:16:22.162Z,15.37
2023-05-14T07:18:48.796Z,15.64
2023-05-14T07:21:15.425Z,15.93
2023-05-14T07:23:41.900Z,16.32
2023-05-14T07:26:08.932Z,16.84
2023-05-14T07:28:35.729Z,17.64
2023-05-14T07:31:08.587Z,17.28
2023-05-14T07:33:36.438Z,16.83
2023-05-14T07:36:03.031Z,16.48
2023-05-14T07:38:29.792Z,16.88
2023-05-14T07:40:56.426Z,17.51
2023-05-14T07:43:23.055Z,17.03
2023-05-14T07:45:49.700Z,17.14
2023-05-14T07:48:16.376Z,17.42
2023-05-14T07:50:43.069Z,18.30
2023-05-14T07:53:09.576Z,17.19
2023-05-14T07:55:36.472Z,16.68
2023-05-14T07:58:03.040Z,16.95
2023-05-14T08:00:29.615Z,16.87
2023-05-14T08:02:56.352Z,16.52
2023-05-14T08:05:23.012Z,16.45
2023-05-14T08:07:49.477Z,16.53
2023-05-14T08:10:16.023Z,16.34
2023-05-14T08:12:42.843Z,16.50
2023-05-14T08:15:10.149Z,16.53
2023-05-14T08:17:36.826Z,16.44
2023-05-14T08:20:06.403Z,16.21
2023-05-14T08:22:33.052Z,16.42
2023-05-14T08:25:00.925Z,16.50
2023-05-14T08:27:28.041Z,16.61
2023-05-14T08:29:54.488Z,17.62
2023-05-14T08:32:23.742Z,17.19
2023-05-14T08:34:51.584Z,16.53
2023-05-14T08:37:18.464Z,17.02
2023-05-14T08:39:45.139Z,17.79
2023-05-14T08:42:15.518Z,18.34
2023-05-14T08:44:53.217Z,17.61
2023-05-14T08:47:23.953Z,18.12
2023-05-14T08:50:04.519Z,17.60
2023-05-14T08:52:31.896Z,17.97
2023-05-14T08:55:04.167Z,17.91
2023-05-14T08:57:33.248Z,17.41
2023-05-14T09:00:00.322Z,17.78
2023-05-14T09:02:31.409Z,17.85
2023-05-14T09:05:02.464Z,18.04
2023-05-14T09:07:29.163Z,18.74
2023-05-14T09:09:55.840Z,18.11
2023-05-14T09:12:22.616Z,17.61
2023-05-14T09:14:50.962Z,17.52
2023-05-14T09:17:18.894Z,17.71
2023-05-14T09:19:49.257Z,18.40
2023-05-14T09:22:18.542Z,18.63
2023-05-14T09:24:45.751Z,18.39
2023-05-14T09:27:21.240Z,18.14
2023-05-14T09:29:48.474Z,18.73
2023-05-14T09:32:15.030Z,19.34
2023-05-14T09:34:42.150Z,19.35
2023-05-14T09:37:10.224Z,19.38
2023-05-14T09:39:38.334Z,18.85
2023-05-14T09:42:06.040Z,19.18
2023-05-14T09:44:32.713Z,19.00
2023-05-14T09:46:59.483Z,18.36
2023-05-14T09:49:26.050Z,18.76
2023-05-14T09:51:52.919Z,18.84
2023-05-14T09:54:19.600Z,18.86
2023-05-14T09:56:46.161Z,19.02
2023-05-14T09:59:13.159Z,18.51
2023-05-14T10:01:43.668Z,19.15
2023-05-14T10:04:12.415Z,19.67
2023-05-14T10:06:42.129Z,20.54
2023-05-14T10:09:16.235Z,20.42
2023-05-14T10:11:47.439Z,19.96
2023-05-14T10:14:26.695Z,20.35
2023-05-14T10:16:58.287Z,20.20
2023-05-14T10:19:26.376Z,19.86
2023-05-14T10:22:04.289Z,19.68
2023-05-14T10:24:32.935Z,20.41
2023-05-14T10:27:00.795Z,21.44
2023-05-14T10:29:37.799Z,20.76
2023-05-14T10:32:08.358Z,20.62
2023-05-14T10:34:38.181Z,20.21
2023-05-14T10:37:10.042Z,19.92
2023-05-14T10:39:54.734Z,19.73
2023-05-14T10:42:33.151Z,20.03
2023-05-14T10:45:07.188Z,19.88
2023-05-14T10:47:37.220Z,19.89
2023-05-14T10:50:07.936Z,19.63
2023-05-14T10:52:35.705Z,19.95
2023-05-14T10:55:07.676Z,19.26
2023-05-14T10:57:38.305Z,20.12
2023-05-14T11:00:08.796Z,20.86
2023-05-14T11:02:38.644Z,21.24
2023-05-14T11:05:11.367Z,21.39
2023-05-14T11:07:42.280Z,21.05
2023-05-14T11:10:20.143Z,21.47
2023-05-14T11:12:50.848Z,21.70
2023-05-14T11:15:21.907Z,20.83
2023-05-14T11:17:51.038Z,21.56
2023-05-14T11:20:19.589Z,21.85
2023-05-14T11:22:48.967Z,21.93
2023-05-14T11:25:15.909Z,22.22
2023-05-14T11:27:45.960Z,22.11
2023-05-14T11:30:13.458Z,21.06
2023-05-14T11:32:40.943Z,22.36
2023-05-14T11:35:08.244Z,21.97
2023-05-14T11:37:34.778Z,22.85
2023-05-14T11:40:01.787Z,22.56
2023-05-14T11:42:28.396Z,21.79
2023-05-14T11:44:55.097Z,21.23
2023-05-14T11:47:23.060Z,21.08
2023-05-14T11:49:49.888Z,20.99
2023-05-14T11:52:19.296Z,20.64
2023-05-14T11:54:46.589Z,20.16
2023-05-14T11:57:19.443Z,20.21
2023-05-14T11:59:47.935Z,20.18
2023-05-14T12:02:18.481Z,20.09
2023-05-14T12:04:52.240Z,19.47
2023-05-14T12:07:19.005Z,19.58
2023-05-14T12:09:49.662Z,19.81
2023-05-14T12:12:22.561Z,20.04
2023-05-14T12:14:50.959Z,19.85
2023-05-14T12:17:22.800Z,20.06
2023-05-14T12:19:53.703Z,20.42
2023-05-14T12:22:22.924Z,20.33
2023-05-14T12:24:56.776Z,20.94
2023-05-14T12:27:26.415Z,21.47
2023-05-14T12:30:20.072Z,21.65
2023-05-14T12:32:51.352Z,21.22
2023-05-14T12:35:18.530Z,20.96
2023-05-14T12:37:44.983Z,21.08
2023-05-14T12:40:11.946Z,20.75
2023-05-14T12:42:38.379Z,20.64
2023-05-14T12:45:07.746Z,20.92
2023-05-14T12:47:34.546Z,22.01
2023-05-14T12:50:01.294Z,21.91
2023-05-14T12:52:37.718Z,21.91
2023-05-14T12:55:07.225Z,21.12
2023-05-14T12:57:35.453Z,21.24
2023-05-14T13:00:07.051Z,21.82
2023-05-14T13:02:42.021Z,22.63
2023-05-14T13:05:11.526Z,23.30
2023-05-14T13:07:38.795Z,23.07
2023-05-14T13:10:06.670Z,22.39
2023-05-14T13:12:33.421Z,22.90
2023-05-14T13:14:59.891Z,22.20
2023-05-14T13:17:26.609Z,21.63
2023-05-14T13:19:53.171Z,21.36
2023-05-14T13:22:19.579Z,21.23
2023-05-14T13:24:46.349Z,21.12
2023-05-14T13:27:13.036Z,20.82
2023-05-14T13:29:39.535Z,20.65
2023-05-14T13:32:06.536Z,21.16
2023-05-14T13:34:32.996Z,21.05
2023-05-14T13:36:59.739Z,20.89
2023-05-14T13:39:27.208Z,21.08
2023-05-14T13:41:56.714Z,21.07
2023-05-14T13:44:23.729Z,21.57
2023-05-14T13:46:50.639Z,21.30
2023-05-14T13:49:17.333Z,21.79
2023-05-14T13:51:43.989Z,22.12
2023-05-14T13:54:10.478Z,22.32
2023-05-14T13:56:37.007Z,22.40
2023-05-14T13:59:03.985Z,22.22
2023-05-14T14:01:31.025Z,22.25
2023-05-14T14:03:57.789Z,22.01
2023-05-14T14:06:27.236Z,22.13
2023-05-14T14:08:54.049Z,22.31
2023-05-14T14:11:20.715Z,22.36
2023-05-14T14:13:47.122Z,22.10
2023-05-14T14:16:13.652Z,21.91
2023-05-14T14:18:40.260Z,21.90
2023-05-14T14:21:06.914Z,21.56
2023-05-14T14:23:33.342Z,21.42
2023-05-14T14:26:00.993Z,21.74
2023-05-14T14:28:27.432Z,21.78
2023-05-14T14:30:54.058Z,21.64
2023-05-14T14:33:20.621Z,21.19
2023-05-14T14:35:47.200Z,21.04
2023-05-14T14:38:14.038Z,21.01
2023-05-14T14:40:40.681Z,21.01
2023-05-14T14:43:07.196Z,21.13
2023-05-14T14:45:33.774Z,20.68
2023-05-14T14:48:37.937Z,20.60
2023-05-14T14:51:07.877Z,20.71
2023-05-14T14:53:36.945Z,20.71
2023-05-14T14:56:04.363Z,20.63
2023-05-14T14:58:31.149Z,20.36
2023-05-14T15:00:58.783Z,20.11
2023-05-14T15:03:25.943Z,19.94
2023-05-14T15:05:53.624Z,19.95
2023-05-14T15:08:27.454Z,19.78
2023-05-14T15:10:56.254Z,19.52
2023-05-14T15:13:23.237Z,19.62
2023-05-14T15:15:51.706Z,19.85
2023-05-14T15:18:18.315Z,19.12
2023-05-14T15:20:44.872Z,18.62
2023-05-14T15:23:11.659Z,18.42
2023-05-14T15:25:38.418Z,17.97
2023-05-14T15:28:07.370Z,17.62
2023-05-14T15:30:34.066Z,17.15
2023-05-14T15:33:00.911Z,16.87
2023-05-14T15:35:27.873Z,16.24
2023-05-14T15:37:57.447Z,16.35
2023-05-14T15:40:24.179Z,16.36
2023-05-14T15:42:50.874Z,16.26
2023-05-14T15:45:17.464Z,16.01
2023-05-14T15:47:44.995Z,15.83
2023-05-14T15:50:12.249Z,16.10
2023-05-14T15:52:39.756Z,16.05
2023-05-14T15:55:06.990Z,15.64
2023-05-14T15:57:34.471Z,15.38
2023-05-14T16:00:01.444Z,15.79
2023-05-14T16:02:30.350Z,16.13
2023-05-14T16:04:57.082Z,16.21
2023-05-14T16:07:23.538Z,15.94
2023-05-14T16:09:49.946Z,16.68
2023-05-14T16:12:16.485Z,17.11
2023-05-14T16:14:45.046Z,16.35
2023-05-14T16:17:11.769Z,16.18
2023-05-14T16:19:39.718Z,15.74
2023-05-14T16:22:06.501Z,15.64
2023-05-14T16:24:33.291Z,15.54
2023-05-14T16:27:00.647Z,15.95
2023-05-14T16:29:27.782Z,15.49
2023-05-14T16:31:54.933Z,15.43
2023-05-14T16:34:21.537Z,15.88
2023-05-14T16:36:48.208Z,15.88
2023-05-14T16:39:14.747Z,16.02
2023-05-14T16:41:41.345Z,15.96
2023-05-14T16:44:07.850Z,15.57
2023-05-14T16:46:34.589Z,15.87
2023-05-14T16:49:02.430Z,15.82
2023-05-14T16:51:29.015Z,15.37
2023-05-14T16:53:55.846Z,15.84
2023-05-14T16:56:22.523Z,15.51
2023-05-14T16:58:50.098Z,15.59
2023-05-14T17:01:16.568Z,16.11
2023-05-14T17:03:44.495Z,16.29
2023-05-14T17:06:11.302Z,16.16
2023-05-14T17:08:37.757Z,15.89
2023-05-14T17:11:05.897Z,15.77
2023-05-14T17:13:33.024Z,15.77
2023-05-14T17:16:00.835Z,15.82
2023-05-14T17:18:28.138Z,15.99
2023-05-14T17:20:54.805Z,15.98
2023-05-14T17:23:21.403Z,15.98
2023-05-14T17:25:47.950Z,15.69
2023-05-14T17:28:14.771Z,15.57
2023-05-14T17:30:41.350Z,15.52
2023-05-14T17:33:07.884Z,15.71
2023-05-14T17:35:36.211Z,15.75
2023-05-14T17:38:03.342Z,15.31
2023-05-14T17:40:29.841Z,15.44
2023-05-14T17:42:56.324Z,15.56
2023-05-14T17:45:22.994Z,15.56
2023-05-14T17:47:51.187Z,15.84
2023-05-14T17:50:18.654Z,15.30
2023-05-14T17:52:46.101Z,15.27
2023-05-14T17:55:12.710Z,15.33
2023-05-14T17:57:39.339Z,15.33
2023-05-14T18:00:07.531Z,15.24
2023-05-14T18:02:34.193Z,15.27
2023-05-14T18:05:02.610Z,15.23
2023-05-14T18:07:30.816Z,15.14
2023-05-14T18:09:58.135Z,14.93
2023-05-14T18:12:26.596Z,14.95
2023-05-14T18:14:53.875Z,14.84
2023-05-14T18:17:20.698Z,14.91
2023-05-14T18:19:47.540Z,14.87
2023-05-14T18:22:14.173Z,14.79
2023-05-14T18:24:40.759Z,14.84
2023-05-14T18:27:07.329Z,14.56
2023-05-14T18:29:33.832Z,14.48
2023-05-14T18:32:00.327Z,14.83
2023-05-14T18:34:26.831Z,14.83
2023-05-14T18:36:54.517Z,14.68
2023-05-14T18:39:21.002Z,14.76
2023-05-14T18:41:47.577Z,14.73
2023-05-14T18:44:14.143Z,14.70
2023-05-14T18:46:43.326Z,14.69
2023-05-14T18:49:09.858Z,14.76
2023-05-14T18:51:36.313Z,14.56
2023-05-14T18:54:03.182Z,14.99
2023-05-14T18:56:29.655Z,14.53
2023-05-14T18:58:56.136Z,14.48
2023-05-14T19:01:25.299Z,14.46
2023-05-14T19:03:53.015Z,14.48
2023-05-14T19:06:20.179Z,14.53
2023-05-14T19:08:46.705Z,14.23
2023-05-14T19:11:13.203Z,13.83
2023-05-14T19:13:39.729Z,13.73
2023-05-14T19:16:06.888Z,13.88
2023-05-14T19:18:34.312Z,14.10
2023-05-14T19:21:00.876Z,14.08
2023-05-14T19:23:27.310Z,14.27
2023-05-14T19:25:54.296Z,14.10
2023-05-14T19:28:21.251Z,13.96
2023-05-14T19:30:47.808Z,13.98
2023-05-14T19:33:14.459Z,13.99
2023-05-14T19:35:40.940Z,13.62
2023-05-14T19:38:09.034Z,13.56
2023-05-14T19:40:35.547Z,13.61
2023-05-14T19:43:02.236Z,13.81
2023-05-14T19:45:28.796Z,13.72
2023-05-14T19:47:55.466Z,14.18
2023-05-14T19:50:22.016Z,14.00
2023-05-14T19:52:48.780Z,13.56
2023-05-14T19:55:15.238Z,13.61
2023-05-14T19:57:41.752Z,13.74
2023-05-14T20:00:09.170Z,13.65
2023-05-14T20:02:35.750Z,13.79
2023-05-14T20:05:02.294Z,13.41
2023-05-14T20:07:29.369Z,13.60
2023-05-14T20:09:55.882Z,13.57
2023-05-14T20:12:22.332Z,13.58
2023-05-14T20:14:48.783Z,13.60
2023-05-14T20:17:15.477Z,13.63
2023-05-14T20:19:43.633Z,13.55
2023-05-14T20:22:10.265Z,13.66
2023-05-14T20:24:36.755Z,13.68
2023-05-14T20:27:03.254Z,13.27
2023-05-14T20:29:29.912Z,13.29
2023-05-14T20:31:56.813Z,13.17
2023-05-14T20:34:23.298Z,13.11
2023-05-14T20:36:50.188Z,13.39
2023-05-14T20:39:16.691Z,13.07
2023-05-14T20:41:45.398Z,12.75
2023-05-14T20:44:11.818Z,13.01
2023-05-14T20:46:38.774Z,13.12
2023-05-14T20:49:05.387Z,12.84
2023-05-14T20:51:32.584Z,12.83
2023-05-14T20:53:59.020Z,13.30
2023-05-14T20:56:26.406Z,13.22
2023-05-14T20:58:52.970Z,13.32
2023-05-14T21:01:19.687Z,13.24
2023-05-14T21:03:46.377Z,13.41
2023-05-14T21:06:13.007Z,13.46
2023-05-14T21:08:40.353Z,13.33
2023-05-14T21:11:06.801Z,13.21
2023-05-14T21:13:33.314Z,13.28
2023-05-14T21:16:00.400Z,13.06
2023-05-14T21:18:30.579Z,12.88
2023-05-14T21:20:57.041Z,13.16
2023-05-14T21:23:23.580Z,13.10
2023-05-14T21:25:50.351Z,13.05
2023-05-14T21:28:16.808Z,13.46
2023-05-14T21:30:43.323Z,13.20
2023-05-14T21:33:09.836Z,13.28
2023-05-14T21:35:36.421Z,13.17
2023-05-14T21:38:03.014Z,13.07
2023-05-14T21:40:29.475Z,13.36
2023-05-14T21:42:55.978Z,13.33
2023-05-14T21:45:23.570Z,13.16
2023-05-14T21:47:50.594Z,13.30
2023-05-14T21:50:17.189Z,13.14
2023-05-14T21:52:43.614Z,13.07
2023-05-14T21:55:10.345Z,13.04
2023-05-14T21:57:36.915Z,12.95
2023-05-14T22:00:10.488Z,12.96
2023-05-14T22:02:37.046Z,13.00
2023-05-14T22:05:03.834Z,13.07
2023-05-14T22:07:32.803Z,13.21
2023-05-14T22:09:59.774Z,13.01
2023-05-14T22:12:26.701Z,13.01
2023-05-14T22:14:53.235Z,12.82
2023-05-14T22:17:19.739Z,12.81
2023-05-14T22:19:46.332Z,12.72
2023-05-14T22:22:12.745Z,12.77
2023-05-14T22:24:39.166Z,12.80
2023-05-14T22:27:06.209Z,12.80
2023-05-14T22:29:32.708Z,12.76
2023-05-14T22:31:59.439Z,12.71
2023-05-14T22:34:26.171Z,12.65
2023-05-14T22:36:52.848Z,12.62
2023-05-14T22:39:19.271Z,12.64
2023-05-14T22:41:45.968Z,12.51
2023-05-14T22:44:12.479Z,12.42
2023-05-14T22:46:38.933Z,12.36
2023-05-14T22:49:05.807Z,12.29
2023-05-14T22:51:32.683Z,12.30
2023-05-14T22:53:59.209Z,12.19
2023-05-14T22:56:25.729Z,12.14
2023-05-14T22:58:52.201Z,12.17
2023-05-14T23:01:18.749Z,12.18
2023-05-14T23:03:45.390Z,12.19
2023-05-14T23:06:14.372Z,12.11
2023-05-14T23:08:40.963Z,12.11
2023-05-14T23:11:07.713Z,12.16
2023-05-14T23:13:34.303Z,12.18
2023-05-14T23:16:01.687Z,12.11
2023-05-14T23:18:28.306Z,12.36
2023-05-14T23:20:55.079Z,12.22
2023-05-14T23:23:21.679Z,12.19
2023-05-14T23:25:50.150Z,12.15
2023-05-14T23:28:17.816Z,12.10
2023-05-14T23:30:45.567Z,12.15
2023-05-14T23:33:12.227Z,12.12
2023-05-14T23:35:40.173Z,12.01
2023-05-14T23:38:07.332Z,12.02
2023-05-14T23:40:34.503Z,11.93
2023-05-14T23:43:01.029Z,11.92
2023-05-14T23:45:28.181Z,11.94
2023-05-14T23:47:58.259Z,11.94
2023-05-14T23:50:25.703Z,12.16
2023-05-14T23:52:54.612Z,12.07
2023-05-14T23:55:22.843Z,12.11
2023-05-14T23:57:49.827Z,11.79
